createdAt,value
2023-05-18T00:02:04.633Z,5.30
2023-05-18T00:04:32.243Z,12.47
2023-05-18T00:06:58.990Z,12.90
2023-05-18T00:09:27.293Z,5.83
2023-05-18T00:11:54.212Z,8.03
2023-05-18T00:14:21.279Z,9.17
2023-05-18T00:16:48.547Z,8.27
2023-05-18T00:19:15.713Z,8.67
2023-05-18T00:21:42.737Z,6.77
2023-05-18T00:24:10.632Z,8.67
2023-05-18T00:26:39.394Z,4.30
2023-05-18T00:29:06.544Z,6.90
2023-05-18T00:31:33.817Z,7.30
2023-05-18T00:34:00.542Z,5.70
2023-05-18T00:36:27.226Z,8.57
2023-05-18T00:38:53.893Z,6.10
2023-05-18T00:41:20.655Z,13.00
2023-05-18T00:43:48.698Z,5.17
2023-05-18T00:46:15.463Z,6.97
2023-05-18T00:48:42.389Z,8.37
2023-05-18T00:51:09.670Z,8.37
2023-05-18T00:53:36.906Z,4.83
2023-05-18T00:56:03.894Z,4.63
2023-05-18T00:58:30.831Z,4.73
2023-05-18T01:00:58.952Z,3.03
2023-05-18T01:03:25.750Z,4.77
2023-05-18T01:05:52.417Z,7.80
2023-05-18T01:08:19.340Z,4.97
2023-05-18T01:10:52.549Z,5.80
2023-05-18T01:13:27.278Z,5.70
2023-05-18T01:15:57.189Z,6.27
2023-05-18T01:18:30.513Z,8.30
2023-05-18T01:20:59.911Z,6.00
2023-05-18T01:23:45.066Z,5.73
2023-05-18T01:26:15.815Z,4.77
2023-05-18T01:28:45.861Z,4.90
2023-05-18T01:31:13.537Z,7.23
2023-05-18T01:33:40.347Z,5.60
2023-05-18T01:36:07.860Z,10.20
2023-05-18T01:38:35.602Z,8.83
2023-05-18T01:41:11.226Z,5.83
2023-05-18T01:43:46.332Z,5.90
2023-05-18T01:46:19.479Z,5.53
2023-05-18T01:48:50.426Z,4.03
2023-05-18T01:51:20.734Z,7.73
2023-05-18T01:53:55.170Z,6.80
2023-05-18T01:56:22.091Z,9.20
2023-05-18T01:58:50.633Z,8.13
2023-05-18T02:01:17.919Z,2.93
2023-05-18T02:03:44.706Z,6.43
2023-05-18T02:06:11.448Z,5.70
2023-05-18T02:08:38.278Z,3.90
2023-05-18T02:11:05.126Z,5.13
2023-05-18T02:13:31.824Z,4.00
2023-05-18T02:15:59.954Z,4.20
2023-05-18T02:18:26.726Z,5.80
2023-05-18T02:20:58.425Z,9.40
2023-05-18T02:23:25.165Z,12.53
2023-05-18T02:25:52.004Z,8.90
2023-05-18T02:28:18.671Z,8.73
2023-05-18T02:30:45.345Z,6.63
2023-05-18T02:33:13.514Z,7.67
2023-05-18T02:35:40.364Z,4.20
2023-05-18T02:38:07.260Z,7.73
2023-05-18T02:40:33.971Z,6.90
2023-05-18T02:43:00.728Z,5.07
2023-05-18T02:45:27.595Z,4.67
2023-05-18T02:47:54.375Z,4.97
2023-05-18T02:50:22.516Z,5.00
2023-05-18T02:52:49.220Z,2.30
2023-05-18T02:55:16.203Z,3.90
2023-05-18T02:57:42.976Z,3.73
2023-05-18T03:00:11.017Z,9.50
2023-05-18T03:02:37.810Z,7.90
2023-05-18T03:05:05.327Z,5.43
2023-05-18T03:07:33.346Z,5.53
2023-05-18T03:10:02.149Z,4.17
2023-05-18T03:12:28.945Z,6.97
2023-05-18T03:14:55.664Z,3.87
2023-05-18T03:17:22.482Z,8.67
2023-05-18T03:19:49.302Z,5.40
2023-05-18T03:22:16.061Z,4.97
2023-05-18T03:24:44.244Z,3.20
2023-05-18T03:27:10.958Z,8.03
2023-05-18T03:29:37.647Z,6.90
2023-05-18T03:32:04.789Z,4.60
2023-05-18T03:34:31.504Z,6.73
2023-05-18T03:36:58.233Z,10.30
2023-05-18T03:39:25.016Z,8.80
2023-05-18T03:41:53.147Z,7.57
2023-05-18T03:44:20.425Z,7.07
2023-05-18T03:46:47.236Z,2.20
2023-05-18T03:49:14.006Z,7.13
2023-05-18T03:51:40.766Z,4.40
2023-05-18T03:54:07.636Z,4.23
2023-05-18T03:56:34.408Z,7.43
2023-05-18T03:59:02.572Z,6.43
2023-05-18T04:01:30.604Z,6.60
2023-05-18T04:03:57.699Z,5.03
2023-05-18T04:06:24.569Z,7.43
2023-05-18T04:08:51.509Z,5.43
2023-05-18T04:11:18.282Z,7.57
2023-05-18T04:13:45.022Z,6.33
2023-05-18T04:16:13.070Z,11.30
2023-05-18T04:18:40.795Z,7.60
2023-05-18T04:21:07.625Z,8.10
2023-05-18T04:23:34.350Z,6.50
2023-05-18T04:26:01.144Z,8.00
2023-05-18T04:28:27.806Z,12.70
2023-05-18T04:30:54.531Z,7.70
2023-05-18T04:33:22.597Z,8.47
2023-05-18T04:35:50.841Z,6.27
2023-05-18T04:38:17.529Z,13.80
2023-05-18T04:40:44.248Z,12.63
2023-05-18T04:43:10.999Z,6.33
2023-05-18T04:45:37.769Z,6.43
2023-05-18T04:48:04.664Z,6.83
2023-05-18T04:50:32.816Z,9.63
2023-05-18T04:52:59.545Z,8.40
2023-05-18T04:55:26.594Z,6.50
2023-05-18T04:57:54.274Z,6.63
2023-05-18T05:00:21.339Z,9.70
2023-05-18T05:02:48.170Z,5.83
2023-05-18T05:05:14.957Z,6.40
2023-05-18T05:07:42.948Z,11.23
2023-05-18T05:10:10.248Z,5.70
2023-05-18T05:12:37.238Z,5.53
2023-05-18T05:15:04.381Z,11.20
2023-05-18T05:17:31.128Z,6.33
2023-05-18T05:19:57.932Z,6.80
2023-05-18T05:22:25.021Z,7.53
2023-05-18T05:24:54.193Z,13.60
2023-05-18T05:27:20.894Z,6.60
2023-05-18T05:29:47.612Z,4.43
2023-05-18T05:32:14.303Z,6.20
2023-05-18T05:34:41.160Z,11.83
2023-05-18T05:37:07.893Z,6.80
2023-05-18T05:39:34.647Z,5.63
2023-05-18T05:42:02.802Z,8.90
2023-05-18T05:44:29.931Z,5.50
2023-05-18T05:46:56.646Z,6.03
2023-05-18T05:49:23.445Z,7.43
2023-05-18T05:51:50.112Z,6.53
2023-05-18T05:54:16.835Z,5.73
2023-05-18T05:56:43.561Z,5.80
2023-05-18T05:59:11.611Z,6.50
2023-05-18T06:01:38.332Z,9.20
2023-05-18T06:04:05.332Z,8.43
2023-05-18T06:06:32.104Z,7.67
2023-05-18T06:08:58.791Z,8.57
2023-05-18T06:11:25.546Z,7.07
2023-05-18T06:13:52.252Z,10.43
2023-05-18T06:16:20.298Z,7.93
2023-05-18T06:18:47.070Z,7.03
2023-05-18T06:21:13.819Z,3.50
2023-05-18T06:23:41.968Z,6.90
2023-05-18T06:26:09.064Z,8.23
2023-05-18T06:28:35.851Z,6.23
2023-05-18T06:31:02.591Z,4.73
2023-05-18T06:33:31.191Z,7.33
2023-05-18T06:35:58.012Z,7.30
2023-05-18T06:38:24.911Z,6.17
2023-05-18T06:40:51.777Z,13.90
2023-05-18T06:43:20.316Z,9.83
2023-05-18T06:45:47.970Z,8.90
2023-05-18T06:48:15.351Z,4.87
2023-05-18T06:50:43.450Z,6.33
2023-05-18T06:53:11.684Z,10.23
2023-05-18T06:55:38.445Z,4.03
2023-05-18T06:58:05.152Z,9.17
2023-05-18T07:00:31.849Z,8.33
2023-05-18T07:02:58.598Z,7.60
2023-05-18T07:05:25.327Z,5.20
2023-05-18T07:07:53.578Z,5.47
2023-05-18T07:10:20.340Z,9.80
2023-05-18T07:12:47.057Z,7.23
2023-05-18T07:15:13.722Z,6.23
2023-05-18T07:17:40.613Z,4.93
2023-05-18T07:20:08.401Z,3.83
2023-05-18T07:22:35.245Z,7.47
2023-05-18T07:25:03.691Z,6.10
2023-05-18T07:27:30.377Z,6.60
2023-05-18T07:29:57.101Z,8.53
2023-05-18T07:32:23.837Z,6.57
2023-05-18T07:34:50.521Z,7.13
2023-05-18T07:37:17.208Z,3.77
2023-05-18T07:39:43.957Z,6.37
2023-05-18T07:42:12.039Z,3.33
2023-05-18T07:44:38.778Z,4.83
2023-05-18T07:47:05.956Z,8.80
2023-05-18T07:49:32.724Z,6.80
2023-05-18T07:51:59.424Z,7.10
2023-05-18T07:54:26.204Z,8.27
2023-05-18T07:56:52.933Z,7.87
2023-05-18T07:59:20.965Z,6.87
2023-05-18T08:01:47.700Z,6.60
2023-05-18T08:04:14.565Z,5.57
2023-05-18T08:06:41.355Z,6.77
2023-05-18T08:09:08.147Z,6.30
2023-05-18T08:11:35.937Z,7.10
2023-05-18T08:14:02.731Z,9.00
2023-05-18T08:16:30.818Z,5.53
2023-05-18T08:18:57.555Z,7.80
2023-05-18T08:21:24.322Z,9.20
2023-05-18T08:23:51.078Z,7.10
2023-05-18T08:26:17.791Z,6.03
2023-05-18T08:28:44.469Z,4.90
2023-05-18T08:31:11.260Z,2.97
2023-05-18T08:33:39.287Z,7.27
2023-05-18T08:36:06.807Z,5.20
2023-05-18T08:38:33.514Z,6.50
2023-05-18T08:41:07.736Z,3.90
2023-05-18T08:43:37.868Z,8.33
2023-05-18T08:46:10.743Z,4.53
2023-05-18T08:48:40.183Z,6.63
2023-05-18T08:51:08.565Z,3.43
2023-05-18T08:53:37.789Z,7.37
2023-05-18T08:56:05.324Z,10.27
2023-05-18T08:58:35.691Z,10.33
2023-05-18T09:01:03.747Z,5.77
2023-05-18T09:03:31.410Z,3.90
2023-05-18T09:06:01.172Z,3.90
2023-05-18T09:08:29.194Z,8.80
2023-05-18T09:10:57.733Z,7.07
2023-05-18T09:13:24.836Z,6.80
2023-05-18T09:15:51.599Z,7.43
2023-05-18T09:18:18.626Z,6.43
2023-05-18T09:20:45.932Z,7.07
2023-05-18T09:23:15.311Z,11.00
2023-05-18T09:25:44.198Z,9.00
2023-05-18T09:28:11.864Z,8.57
2023-05-18T09:30:42.158Z,7.80
2023-05-18T09:33:16.682Z,6.80
2023-05-18T09:35:44.781Z,5.40
2023-05-18T09:38:12.116Z,7.00
2023-05-18T09:40:44.311Z,9.40
2023-05-18T09:43:10.995Z,4.93
2023-05-18T09:45:42.125Z,6.47
2023-05-18T09:48:09.735Z,13.33
2023-05-18T09:50:36.645Z,10.97
2023-05-18T09:53:05.984Z,8.90
2023-05-18T09:55:32.890Z,5.97
2023-05-18T09:58:01.313Z,8.00
2023-05-18T10:00:28.007Z,6.23
2023-05-18T10:02:54.778Z,5.70
2023-05-18T10:05:22.735Z,5.00
2023-05-18T10:07:51.353Z,6.63
2023-05-18T10:10:19.284Z,8.00
2023-05-18T10:12:46.183Z,3.53
2023-05-18T10:15:17.302Z,5.93
2023-05-18T10:17:44.936Z,4.70
2023-05-18T10:20:17.036Z,4.07
2023-05-18T10:22:46.141Z,6.53
2023-05-18T10:25:18.345Z,5.57
2023-05-18T10:27:46.657Z,10.97
2023-05-18T10:30:16.184Z,5.30
2023-05-18T10:32:45.696Z,4.87
2023-05-18T10:35:20.930Z,7.37
2023-05-18T10:37:48.498Z,9.97
2023-05-18T10:40:16.902Z,7.87
2023-05-18T10:42:45.082Z,6.70
2023-05-18T10:45:12.215Z,6.90
2023-05-18T10:47:41.611Z,3.43
2023-05-18T10:50:09.887Z,4.17
2023-05-18T10:52:37.881Z,4.90
2023-05-18T10:55:06.164Z,3.60
2023-05-18T10:57:38.151Z,4.13
2023-05-18T11:00:06.747Z,6.43
2023-05-18T11:02:34.091Z,3.33
2023-05-18T11:05:05.567Z,4.90
2023-05-18T11:07:32.648Z,10.17
2023-05-18T11:10:01.879Z,11.57
2023-05-18T11:12:32.173Z,3.90
2023-05-18T11:14:58.946Z,4.60
2023-05-18T11:17:28.739Z,6.33
2023-05-18T11:20:17.038Z,5.80
2023-05-18T11:22:49.155Z,5.50
2023-05-18T11:25:37.444Z,6.27
2023-05-18T11:28:05.894Z,6.67
2023-05-18T11:30:46.977Z,9.43
2023-05-18T11:33:14.962Z,4.63
2023-05-18T11:36:03.510Z,5.87
2023-05-18T11:38:47.919Z,7.30
2023-05-18T11:41:28.558Z,7.03
2023-05-18T11:44:04.472Z,8.50
2023-05-18T11:46:31.220Z,8.37
2023-05-18T11:49:03.451Z,7.20
2023-05-18T11:51:32.842Z,6.10
2023-05-18T11:53:59.949Z,4.33
2023-05-18T11:56:27.127Z,5.20
2023-05-18T11:59:11.715Z,3.03
2023-05-18T12:01:38.547Z,4.63
2023-05-18T12:04:06.165Z,2.63
2023-05-18T12:06:34.394Z,6.57
2023-05-18T12:09:01.328Z,6.30
2023-05-18T12:11:28.104Z,7.10
2023-05-18T12:13:55.261Z,3.13
2023-05-18T12:16:22.368Z,6.53
2023-05-18T12:18:49.469Z,6.97
2023-05-18T12:21:22.177Z,4.33
2023-05-18T12:23:57.632Z,9.40
2023-05-18T12:26:24.409Z,7.43
2023-05-18T12:28:52.024Z,8.07
2023-05-18T12:31:19.098Z,9.20
2023-05-18T12:33:45.856Z,7.33
2023-05-18T12:36:13.271Z,3.83
2023-05-18T12:38:39.973Z,4.23
2023-05-18T12:41:08.104Z,9.60
2023-05-18T12:43:35.137Z,3.33
2023-05-18T12:46:02.454Z,5.30
2023-05-18T12:48:35.410Z,7.63
2023-05-18T12:51:02.322Z,3.33
2023-05-18T12:53:41.457Z,4.90
2023-05-18T12:56:09.516Z,4.60
2023-05-18T12:58:36.213Z,7.50
2023-05-18T13:01:07.873Z,4.23
2023-05-18T13:03:34.775Z,7.77
2023-05-18T13:06:05.977Z,7.53
2023-05-18T13:08:34.074Z,4.30
2023-05-18T13:11:12.838Z,5.27
2023-05-18T13:13:57.645Z,7.70
2023-05-18T13:16:24.479Z,3.43
2023-05-18T13:18:56.476Z,5.80
2023-05-18T13:21:23.209Z,3.40
2023-05-18T13:23:50.038Z,8.33
2023-05-18T13:26:16.743Z,3.00
2023-05-18T13:28:46.579Z,3.83
2023-05-18T13:31:13.450Z,4.33
2023-05-18T13:33:40.283Z,4.27
2023-05-18T13:36:07.532Z,3.50
2023-05-18T13:38:34.231Z,5.53
2023-05-18T13:41:00.940Z,4.60
2023-05-18T13:43:27.666Z,3.53
2023-05-18T13:45:55.777Z,4.17
2023-05-18T13:48:22.597Z,8.17
2023-05-18T13:50:49.372Z,8.40
2023-05-18T13:53:16.286Z,9.53
2023-05-18T13:55:42.982Z,7.40
2023-05-18T13:58:09.762Z,7.77
2023-05-18T14:00:36.776Z,10.33
2023-05-18T14:03:04.883Z,5.60
2023-05-18T14:05:31.756Z,7.00
2023-05-18T14:07:58.462Z,4.27
2023-05-18T14:10:25.228Z,8.80
2023-05-18T14:12:51.953Z,4.30
2023-05-18T14:15:18.732Z,5.43
2023-05-18T14:17:45.700Z,6.40
2023-05-18T14:20:13.937Z,7.13
2023-05-18T14:22:40.997Z,6.33
2023-05-18T14:25:08.464Z,8.90
2023-05-18T14:27:35.185Z,6.33
2023-05-18T14:30:01.950Z,9.67
2023-05-18T14:32:28.774Z,6.53
2023-05-18T14:34:55.599Z,8.80
2023-05-18T14:37:23.721Z,15.50
2023-05-18T14:39:50.402Z,6.53
2023-05-18T14:42:17.132Z,7.20
2023-05-18T14:44:43.864Z,23.00
2023-05-18T14:47:10.960Z,8.37
2023-05-18T14:49:38.085Z,41.30
2023-05-18T14:52:05.542Z,21.60
2023-05-18T14:54:33.611Z,4.77
2023-05-18T14:57:00.321Z,5.90
2023-05-18T14:59:27.082Z,6.27
2023-05-18T15:01:53.923Z,5.50
2023-05-18T15:04:20.721Z,14.07
2023-05-18T15:06:48.276Z,7.47
2023-05-18T15:09:14.927Z,5.37
2023-05-18T15:11:42.968Z,4.80
2023-05-18T15:14:09.664Z,8.30
2023-05-18T15:16:36.476Z,7.07
2023-05-18T15:19:03.224Z,15.70
2023-05-18T15:21:30.004Z,6.60
2023-05-18T15:23:56.784Z,13.97
2023-05-18T15:26:23.608Z,8.33
2023-05-18T15:28:51.648Z,6.30
2023-05-18T15:31:18.384Z,6.37
2023-05-18T15:33:45.122Z,4.27
2023-05-18T15:36:11.922Z,6.73
2023-05-18T15:38:38.638Z,9.20
2023-05-18T15:41:05.382Z,6.27
2023-05-18T15:43:32.124Z,8.10
2023-05-18T15:46:00.221Z,5.20
2023-05-18T15:48:26.925Z,3.77
2023-05-18T15:50:53.834Z,3.87
2023-05-18T15:53:20.541Z,2.37
2023-05-18T15:55:47.396Z,5.90
2023-05-18T15:58:14.086Z,6.17
2023-05-18T16:00:40.769Z,5.07
2023-05-18T16:03:09.310Z,8.30
2023-05-18T16:05:36.082Z,7.50
2023-05-18T16:08:02.784Z,7.20
2023-05-18T16:10:29.959Z,7.07
2023-05-18T16:12:56.948Z,4.67
2023-05-18T16:15:23.651Z,5.10
2023-05-18T16:17:50.475Z,2.90
2023-05-18T16:20:18.674Z,5.30
2023-05-18T16:22:45.395Z,3.43
2023-05-18T16:25:12.067Z,12.03
2023-05-18T16:27:38.918Z,5.27
2023-05-18T16:30:07.029Z,5.63
2023-05-18T16:32:33.941Z,11.10
2023-05-18T16:35:00.762Z,4.10
2023-05-18T16:37:28.792Z,6.27
2023-05-18T16:39:55.507Z,10.00
2023-05-18T16:42:22.281Z,11.30
2023-05-18T16:44:49.036Z,9.73
2023-05-18T16:47:15.761Z,8.80
2023-05-18T16:49:42.549Z,4.07
2023-05-18T16:52:09.216Z,5.40
2023-05-18T16:54:37.271Z,5.50
2023-05-18T16:57:04.376Z,5.33
2023-05-18T16:59:31.082Z,11.53
2023-05-18T17:01:57.784Z,5.73
2023-05-18T17:04:24.534Z,13.53
2023-05-18T17:06:51.799Z,6.33
2023-05-18T17:09:18.525Z,5.77
2023-05-18T17:11:46.647Z,9.60
2023-05-18T17:14:13.507Z,2.87
2023-05-18T17:16:40.548Z,8.53
2023-05-18T17:19:07.443Z,4.77
2023-05-18T17:21:34.373Z,6.33
2023-05-18T17:24:01.084Z,8.07
2023-05-18T17:26:27.846Z,10.70
2023-05-18T17:28:55.979Z,7.77
2023-05-18T17:31:22.822Z,7.60
2023-05-18T17:33:49.540Z,9.83
2023-05-18T17:36:16.363Z,6.40
2023-05-18T17:38:43.117Z,5.27
2023-05-18T17:41:10.038Z,3.93
2023-05-18T17:43:36.758Z,4.10
2023-05-18T17:46:04.854Z,5.23
2023-05-18T17:48:31.609Z,3.70
2023-05-18T17:50:58.522Z,3.80
2023-05-18T17:53:25.233Z,6.20
2023-05-18T17:55:52.808Z,4.63
2023-05-18T17:58:19.517Z,4.47
2023-05-18T18:00:46.561Z,3.90
2023-05-18T18:03:14.776Z,7.20
2023-05-18T18:05:41.580Z,8.43
2023-05-18T18:08:08.298Z,2.77
2023-05-18T18:10:35.025Z,2.90
2023-05-18T18:13:01.725Z,5.77
2023-05-18T18:15:28.617Z,4.53
2023-05-18T18:17:55.437Z,7.27
2023-05-18T18:20:23.649Z,4.40
2023-05-18T18:22:50.320Z,6.63
2023-05-18T18:25:17.070Z,4.83
2023-05-18T18:27:44.014Z,4.10
2023-05-18T18:30:12.034Z,8.40
2023-05-18T18:32:38.745Z,5.03
2023-05-18T18:35:08.159Z,6.73
2023-05-18T18:37:36.248Z,7.30
2023-05-18T18:40:03.180Z,3.70
2023-05-18T18:42:29.864Z,2.97
2023-05-18T18:44:56.724Z,4.90
2023-05-18T18:47:23.549Z,7.83
2023-05-18T18:49:50.339Z,5.27
2023-05-18T18:52:17.079Z,6.23
2023-05-18T18:54:45.263Z,5.50
2023-05-18T18:57:12.092Z,4.60
2023-05-18T18:59:39.081Z,5.17
2023-05-18T19:02:05.970Z,4.83
2023-05-18T19:04:32.805Z,3.90
2023-05-18T19:06:59.541Z,4.30
2023-05-18T19:09:26.255Z,5.47
2023-05-18T19:11:54.309Z,7.07
2023-05-18T19:14:20.992Z,9.80
2023-05-18T19:16:49.127Z,5.40
2023-05-18T19:19:15.880Z,5.77
2023-05-18T19:21:42.586Z,4.50
2023-05-18T19:24:09.361Z,4.80
2023-05-18T19:26:36.205Z,4.47
2023-05-18T19:29:04.224Z,2.90
2023-05-18T19:31:31.015Z,8.00
2023-05-18T19:33:57.726Z,6.63
2023-05-18T19:36:24.434Z,8.07
2023-05-18T19:38:51.201Z,5.43
2023-05-18T19:41:17.898Z,9.17
2023-05-18T19:43:44.691Z,8.80
2023-05-18T19:46:12.906Z,7.43
2023-05-18T19:48:39.685Z,8.70
2023-05-18T19:51:06.416Z,11.97
2023-05-18T19:53:33.110Z,6.63
2023-05-18T19:56:00.134Z,8.93
2023-05-18T19:58:27.810Z,10.90
2023-05-18T20:00:54.575Z,7.50
2023-05-18T20:03:22.721Z,6.67
2023-05-18T20:05:49.497Z,7.13
2023-05-18T20:08:16.196Z,10.87
2023-05-18T20:10:42.880Z,7.60
2023-05-18T20:13:09.577Z,7.60
2023-05-18T20:15:36.327Z,7.40
2023-05-18T20:18:04.543Z,7.10
2023-05-18T20:20:34.169Z,9.30
2023-05-18T20:23:01.295Z,9.67
2023-05-18T20:25:28.002Z,8.67
2023-05-18T20:27:54.782Z,9.97
2023-05-18T20:30:21.586Z,13.60
2023-05-18T20:32:48.464Z,8.77
2023-05-18T20:35:15.310Z,10.20
2023-05-18T20:37:43.341Z,8.87
2023-05-18T20:40:10.596Z,13.63
2023-05-18T20:42:37.284Z,8.93
2023-05-18T20:45:04.512Z,12.47
2023-05-18T20:47:31.304Z,9.73
2023-05-18T20:49:58.039Z,14.17
2023-05-18T20:52:24.775Z,11.60
2023-05-18T20:54:52.868Z,15.37
2023-05-18T20:57:19.629Z,17.50
2023-05-18T20:59:46.468Z,9.40
2023-05-18T21:02:13.294Z,14.40
2023-05-18T21:04:39.990Z,18.17
2023-05-18T21:07:06.686Z,14.03
2023-05-18T21:09:33.394Z,18.80
2023-05-18T21:12:01.489Z,24.37
2023-05-18T21:14:28.209Z,22.40
2023-05-18T21:16:54.885Z,22.73
2023-05-18T21:19:21.636Z,30.70
2023-05-18T21:21:48.372Z,28.53
2023-05-18T21:24:15.065Z,25.10
2023-05-18T21:26:41.759Z,17.13
2023-05-18T21:29:09.788Z,19.53
2023-05-18T21:31:36.596Z,16.07
2023-05-18T21:34:03.345Z,29.00
2023-05-18T21:36:30.500Z,21.70
2023-05-18T21:38:57.188Z,20.03
2023-05-18T21:41:23.916Z,16.67
2023-05-18T21:43:50.637Z,13.30
2023-05-18T21:46:18.725Z,16.57
2023-05-18T21:48:45.492Z,11.13
2023-05-18T21:51:12.194Z,9.37
2023-05-18T21:53:38.867Z,11.30
2023-05-18T21:56:06.440Z,8.50
2023-05-18T21:58:33.143Z,8.40
2023-05-18T22:01:00.011Z,12.83
2023-05-18T22:03:28.132Z,24.83
2023-05-18T22:05:54.913Z,22.03
2023-05-18T22:08:21.627Z,20.97
2023-05-18T22:10:48.391Z,15.83
2023-05-18T22:13:15.204Z,13.60
2023-05-18T22:15:41.973Z,14.17
2023-05-18T22:18:08.850Z,13.20
2023-05-18T22:20:36.927Z,9.33
2023-05-18T22:23:03.731Z,13.53
2023-05-18T22:25:30.471Z,13.87
2023-05-18T22:27:57.276Z,13.43
2023-05-18T22:30:24.116Z,13.00
2023-05-18T22:32:50.944Z,9.80
2023-05-18T22:35:17.840Z,16.87
2023-05-18T22:37:46.380Z,10.53
2023-05-18T22:40:13.615Z,8.73
2023-05-18T22:42:40.443Z,10.43
2023-05-18T22:45:08.916Z,6.23
2023-05-18T22:47:35.702Z,6.70
2023-05-18T22:50:02.450Z,12.37
2023-05-18T22:52:29.275Z,7.67
2023-05-18T22:54:57.348Z,9.03
2023-05-18T22:57:24.074Z,8.13
2023-05-18T22:59:50.808Z,12.73
2023-05-18T23:02:17.524Z,9.53
2023-05-18T23:04:44.341Z,13.07
2023-05-18T23:07:11.218Z,9.87
2023-05-18T23:09:37.947Z,12.97
2023-05-18T23:12:07.325Z,10.03
2023-05-18T23:14:34.045Z,9.20
2023-05-18T23:17:00.917Z,10.30
2023-05-18T23:19:28.330Z,8.83
2023-05-18T23:21:55.616Z,6.00
2023-05-18T23:24:22.422Z,5.10
2023-05-18T23:26:49.187Z,12.03
2023-05-18T23:29:17.358Z,9.03
2023-05-18T23:31:44.045Z,5.50
2023-05-18T23:34:11.357Z,6.73
2023-05-18T23:36:39.440Z,7.57
2023-05-18T23:39:06.663Z,3.97
2023-05-18T23:41:35.704Z,7.47
2023-05-18T23:44:03.187Z,4.73
2023-05-18T23:46:32.030Z,7.37
2023-05-18T23:48:59.359Z,7.60
2023-05-18T23:51:29.723Z,7.10
2023-05-18T23:53:57.348Z,6.33
2023-05-18T23:56:24.760Z,6.67
2023-05-18T23:58:51.944Z,13.83
